sensor_id;sensor_type;location;lat;lon;timestamp;P1;durP1;ratioP1;P2;durP2;ratioP2
40635;SDS011;26642;55.766;37.828;2023-03-01T00:01:12;0.93;;;0.40;;
40635;SDS011;26642;55.766;37.828;2023-03-01T00:03:40;1.30;;;0.40;;
40635;SDS011;26642;55.766;37.828;2023-03-01T00:06:06;1.25;;;0.40;;
40635;SDS011;26642;55.766;37.828;2023-03-01T00:08:33;0.73;;;0.30;;
40635;SDS011;26642;55.766;37.828;2023-03-01T00:11:00;0.85;;;0.40;;
40635;SDS011;26642;55.766;37.828;2023-03-01T00:13:27;0.90;;;0.30;;
40635;SDS011;26642;55.766;37.828;2023-03-01T00:15:53;1.17;;;0.38;;
40635;SDS011;26642;55.766;37.828;2023-03-01T00:18:19;1.75;;;0.40;;
40635;SDS011;26642;55.766;37.828;2023-03-01T00:20:55;0.85;;;0.40;;
40635;SDS011;26642;55.766;37.828;2023-03-01T00:23:21;0.77;;;0.45;;
40635;SDS011;26642;55.766;37.828;2023-03-01T00:25:48;0.82;;;0.30;;
40635;SDS011;26642;55.766;37.828;2023-03-01T00:28:14;1.25;;;0.60;;
40635;SDS011;26642;55.766;37.828;2023-03-01T00:30:40;1.40;;;0.40;;
40635;SDS011;26642;55.766;37.828;2023-03-01T00:33:06;0.43;;;0.22;;
40635;SDS011;26642;55.766;37.828;2023-03-01T00:35:33;2.35;;;1.02;;
40635;SDS011;26642;55.766;37.828;2023-03-01T00:37:59;0.45;;;0.43;;
40635;SDS011;26642;55.766;37.828;2023-03-01T00:40:28;0.52;;;0.40;;
40635;SDS011;26642;55.766;37.828;2023-03-01T00:42:55;0.55;;;0.30;;
40635;SDS011;26642;55.766;37.828;2023-03-01T00:45:21;1.15;;;0.35;;
40635;SDS011;26642;55.766;37.828;2023-03-01T00:47:48;0.43;;;0.43;;
40635;SDS011;26642;55.766;37.828;2023-03-01T00:50:14;1.45;;;0.43;;
40635;SDS011;26642;55.766;37.828;2023-03-01T00:52:41;1.58;;;0.30;;
40635;SDS011;26642;55.766;37.828;2023-03-01T00:55:07;1.38;;;0.30;;
40635;SDS011;26642;55.766;37.828;2023-03-01T00:57:33;0.80;;;0.35;;
40635;SDS011;26642;55.766;37.828;2023-03-01T00:59:59;0.90;;;0.20;;
40635;SDS011;26642;55.766;37.828;2023-03-01T01:02:25;0.95;;;0.40;;
40635;SDS011;26642;55.766;37.828;2023-03-01T01:04:51;1.40;;;0.40;;
40635;SDS011;26642;55.766;37.828;2023-03-01T01:07:17;1.10;;;0.40;;
40635;SDS011;26642;55.766;37.828;2023-03-01T01:09:45;1.45;;;0.40;;
40635;SDS011;26642;55.766;37.828;2023-03-01T01:12:11;1.17;;;0.40;;
40635;SDS011;26642;55.766;37.828;2023-03-01T01:14:38;1.33;;;0.40;;
40635;SDS011;26642;55.766;37.828;2023-03-01T01:17:04;1.45;;;0.30;;
40635;SDS011;26642;55.766;37.828;2023-03-01T01:19:30;1.63;;;0.50;;
40635;SDS011;26642;55.766;37.828;2023-03-01T01:21:56;1.13;;;0.43;;
40635;SDS011;26642;55.766;37.828;2023-03-01T01:24:22;2.70;;;0.40;;
40635;SDS011;26642;55.766;37.828;2023-03-01T01:26:48;0.98;;;0.50;;
40635;SDS011;26642;55.766;37.828;2023-03-01T01:29:14;0.50;;;0.32;;
40635;SDS011;26642;55.766;37.828;2023-03-01T01:31:40;2.45;;;0.32;;
40635;SDS011;26642;55.766;37.828;2023-03-01T01:34:08;3.25;;;0.22;;
40635;SDS011;26642;55.766;37.828;2023-03-01T01:36:42;1.05;;;0.30;;
40635;SDS011;26642;55.766;37.828;2023-03-01T01:39:09;0.57;;;0.30;;
40635;SDS011;26642;55.766;37.828;2023-03-01T01:41:39;0.90;;;0.40;;
40635;SDS011;26642;55.766;37.828;2023-03-01T01:44:15;1.05;;;0.47;;
40635;SDS011;26642;55.766;37.828;2023-03-01T01:46:47;1.23;;;0.30;;
40635;SDS011;26642;55.766;37.828;2023-03-01T01:52:36;2.28;;;0.30;;
40635;SDS011;26642;55.766;37.828;2023-03-01T01:55:07;0.82;;;0.40;;
40635;SDS011;26642;55.766;37.828;2023-03-01T01:57:39;1.95;;;0.30;;
40635;SDS011;26642;55.766;37.828;2023-03-01T02:00:19;2.05;;;0.28;;
40635;SDS011;26642;55.766;37.828;2023-03-01T02:02:48;0.90;;;0.30;;
40635;SDS011;26642;55.766;37.828;2023-03-01T02:07:49;0.32;;;0.20;;
40635;SDS011;26642;55.766;37.828;2023-03-01T02:10:19;1.65;;;0.30;;
40635;SDS011;26642;55.766;37.828;2023-03-01T02:12:46;0.75;;;0.40;;
40635;SDS011;26642;55.766;37.828;2023-03-01T02:15:12;0.40;;;0.35;;
40635;SDS011;26642;55.766;37.828;2023-03-01T02:17:38;1.15;;;0.38;;
40635;SDS011;26642;55.766;37.828;2023-03-01T02:22:45;0.52;;;0.22;;
40635;SDS011;26642;55.766;37.828;2023-03-01T02:25:19;1.70;;;0.38;;
40635;SDS011;26642;55.766;37.828;2023-03-01T02:30:50;0.70;;;0.35;;
40635;SDS011;26642;55.766;37.828;2023-03-01T02:33:36;0.73;;;0.22;;
40635;SDS011;26642;55.766;37.828;2023-03-01T02:36:05;4.13;;;0.70;;
40635;SDS011;26642;55.766;37.828;2023-03-01T02:38:35;0.63;;;0.20;;
40635;SDS011;26642;55.766;37.828;2023-03-01T02:41:01;1.92;;;0.40;;
40635;SDS011;26642;55.766;37.828;2023-03-01T02:43:31;2.25;;;0.30;;
40635;SDS011;26642;55.766;37.828;2023-03-01T02:46:02;0.75;;;0.22;;
40635;SDS011;26642;55.766;37.828;2023-03-01T02:48:43;0.93;;;0.30;;
40635;SDS011;26642;55.766;37.828;2023-03-01T02:54:13;0.70;;;0.30;;
40635;SDS011;26642;55.766;37.828;2023-03-01T02:56:50;0.98;;;0.25;;
40635;SDS011;26642;55.766;37.828;2023-03-01T02:59:21;1.55;;;0.30;;
40635;SDS011;26642;55.766;37.828;2023-03-01T03:01:51;0.28;;;0.13;;
40635;SDS011;26642;55.766;37.828;2023-03-01T03:04:18;1.98;;;0.40;;
40635;SDS011;26642;55.766;37.828;2023-03-01T03:06:48;1.73;;;0.30;;
40635;SDS011;26642;55.766;37.828;2023-03-01T03:09:16;0.70;;;0.50;;
40635;SDS011;26642;55.766;37.828;2023-03-01T03:11:44;0.30;;;0.25;;
40635;SDS011;26642;55.766;37.828;2023-03-01T03:14:12;0.55;;;0.30;;
40635;SDS011;26642;55.766;37.828;2023-03-01T03:16:46;0.93;;;0.38;;
40635;SDS011;26642;55.766;37.828;2023-03-01T03:19:16;1.30;;;0.40;;
40635;SDS011;26642;55.766;37.828;2023-03-01T03:21:43;2.83;;;0.35;;
40635;SDS011;26642;55.766;37.828;2023-03-01T03:24:09;1.98;;;0.30;;
40635;SDS011;26642;55.766;37.828;2023-03-01T03:26:35;1.00;;;0.30;;
40635;SDS011;26642;55.766;37.828;2023-03-01T03:29:02;0.68;;;0.40;;
40635;SDS011;26642;55.766;37.828;2023-03-01T03:31:28;1.30;;;0.45;;
40635;SDS011;26642;55.766;37.828;2023-03-01T03:33:54;1.15;;;0.35;;
40635;SDS011;26642;55.766;37.828;2023-03-01T03:36:22;3.47;;;0.65;;
40635;SDS011;26642;55.766;37.828;2023-03-01T03:38:49;1.35;;;0.30;;
40635;SDS011;26642;55.766;37.828;2023-03-01T03:41:15;1.08;;;0.40;;
40635;SDS011;26642;55.766;37.828;2023-03-01T03:43:42;4.50;;;0.63;;
40635;SDS011;26642;55.766;37.828;2023-03-01T03:46:09;1.90;;;0.52;;
40635;SDS011;26642;55.766;37.828;2023-03-01T03:48:37;0.80;;;0.20;;
40635;SDS011;26642;55.766;37.828;2023-03-01T03:51:05;0.75;;;0.30;;
40635;SDS011;26642;55.766;37.828;2023-03-01T03:53:32;0.95;;;0.45;;
40635;SDS011;26642;55.766;37.828;2023-03-01T03:55:58;0.30;;;0.20;;
40635;SDS011;26642;55.766;37.828;2023-03-01T03:58:25;0.57;;;0.30;;
40635;SDS011;26642;55.766;37.828;2023-03-01T04:00:52;0.85;;;0.30;;
40635;SDS011;26642;55.766;37.828;2023-03-01T04:03:23;1.95;;;0.57;;
40635;SDS011;26642;55.766;37.828;2023-03-01T04:05:51;1.23;;;0.52;;
40635;SDS011;26642;55.766;37.828;2023-03-01T04:08:18;0.40;;;0.30;;
40635;SDS011;26642;55.766;37.828;2023-03-01T04:10:47;1.00;;;0.50;;
40635;SDS011;26642;55.766;37.828;2023-03-01T04:13:16;1.02;;;0.40;;
40635;SDS011;26642;55.766;37.828;2023-03-01T04:15:45;0.60;;;0.30;;
40635;SDS011;26642;55.766;37.828;2023-03-01T04:18:16;1.63;;;0.50;;
40635;SDS011;26642;55.766;37.828;2023-03-01T04:20:44;0.90;;;0.30;;
40635;SDS011;26642;55.766;37.828;2023-03-01T04:23:12;1.58;;;0.50;;
40635;SDS011;26642;55.766;37.828;2023-03-01T04:28:24;0.38;;;0.22;;
40635;SDS011;26642;55.766;37.828;2023-03-01T04:31:02;1.30;;;0.32;;
40635;SDS011;26642;55.766;37.828;2023-03-01T04:33:38;0.85;;;0.35;;
40635;SDS011;26642;55.766;37.828;2023-03-01T04:36:06;0.60;;;0.20;;
40635;SDS011;26642;55.766;37.828;2023-03-01T04:38:34;0.98;;;0.30;;
40635;SDS011;26642;55.766;37.828;2023-03-01T04:41:03;1.48;;;0.65;;
40635;SDS011;26642;55.766;37.828;2023-03-01T04:43:33;1.35;;;0.63;;
40635;SDS011;26642;55.766;37.828;2023-03-01T04:46:03;1.15;;;0.52;;
40635;SDS011;26642;55.766;37.828;2023-03-01T04:48:33;1.50;;;0.50;;
40635;SDS011;26642;55.766;37.828;2023-03-01T04:50:59;1.15;;;0.40;;
40635;SDS011;26642;55.766;37.828;2023-03-01T04:53:25;1.00;;;0.38;;
40635;SDS011;26642;55.766;37.828;2023-03-01T04:55:52;2.38;;;0.40;;
40635;SDS011;26642;55.766;37.828;2023-03-01T04:58:21;3.53;;;0.40;;
40635;SDS011;26642;55.766;37.828;2023-03-01T05:00:50;2.53;;;0.60;;
40635;SDS011;26642;55.766;37.828;2023-03-01T05:03:16;1.40;;;0.40;;
40635;SDS011;26642;55.766;37.828;2023-03-01T05:05:43;1.38;;;0.43;;
40635;SDS011;26642;55.766;37.828;2023-03-01T05:08:11;2.70;;;0.40;;
40635;SDS011;26642;55.766;37.828;2023-03-01T05:10:43;2.55;;;0.60;;
40635;SDS011;26642;55.766;37.828;2023-03-01T05:13:20;1.70;;;0.60;;
40635;SDS011;26642;55.766;37.828;2023-03-01T05:15:47;2.42;;;0.70;;
40635;SDS011;26642;55.766;37.828;2023-03-01T05:18:20;2.08;;;0.55;;
40635;SDS011;26642;55.766;37.828;2023-03-01T05:20:46;1.67;;;0.77;;
40635;SDS011;26642;55.766;37.828;2023-03-01T05:23:12;1.35;;;0.50;;
40635;SDS011;26642;55.766;37.828;2023-03-01T05:25:38;1.65;;;0.60;;
40635;SDS011;26642;55.766;37.828;2023-03-01T05:28:06;3.13;;;0.52;;
40635;SDS011;26642;55.766;37.828;2023-03-01T05:30:36;2.15;;;0.57;;
40635;SDS011;26642;55.766;37.828;2023-03-01T05:33:04;1.75;;;0.60;;
40635;SDS011;26642;55.766;37.828;2023-03-01T05:35:35;2.38;;;0.60;;
40635;SDS011;26642;55.766;37.828;2023-03-01T05:38:01;0.77;;;0.50;;
40635;SDS011;26642;55.766;37.828;2023-03-01T05:40:27;1.83;;;0.50;;
40635;SDS011;26642;55.766;37.828;2023-03-01T05:42:55;4.13;;;0.65;;
40635;SDS011;26642;55.766;37.828;2023-03-01T05:45:23;0.52;;;0.32;;
40635;SDS011;26642;55.766;37.828;2023-03-01T05:47:50;3.28;;;0.65;;
40635;SDS011;26642;55.766;37.828;2023-03-01T05:50:18;1.95;;;0.90;;
40635;SDS011;26642;55.766;37.828;2023-03-01T05:52:50;1.02;;;0.60;;
40635;SDS011;26642;55.766;37.828;2023-03-01T05:55:21;1.75;;;0.60;;
40635;SDS011;26642;55.766;37.828;2023-03-01T05:57:47;0.98;;;0.40;;
40635;SDS011;26642;55.766;37.828;2023-03-01T06:00:16;1.85;;;0.65;;
40635;SDS011;26642;55.766;37.828;2023-03-01T06:02:44;1.00;;;0.35;;
40635;SDS011;26642;55.766;37.828;2023-03-01T06:05:11;1.10;;;0.60;;
40635;SDS011;26642;55.766;37.828;2023-03-01T06:07:38;1.88;;;0.75;;
40635;SDS011;26642;55.766;37.828;2023-03-01T06:10:05;1.45;;;0.45;;
40635;SDS011;26642;55.766;37.828;2023-03-01T06:12:32;1.60;;;0.60;;
40635;SDS011;26642;55.766;37.828;2023-03-01T06:15:00;1.92;;;0.40;;
40635;SDS011;26642;55.766;37.828;2023-03-01T06:17:28;1.30;;;0.60;;
40635;SDS011;26642;55.766;37.828;2023-03-01T06:19:55;1.60;;;0.70;;
40635;SDS011;26642;55.766;37.828;2023-03-01T06:22:21;3.00;;;0.77;;
40635;SDS011;26642;55.766;37.828;2023-03-01T06:24:47;1.88;;;0.82;;
40635;SDS011;26642;55.766;37.828;2023-03-01T06:27:13;2.38;;;0.63;;
40635;SDS011;26642;55.766;37.828;2023-03-01T06:29:39;3.95;;;0.75;;
40635;SDS011;26642;55.766;37.828;2023-03-01T06:32:06;3.08;;;0.63;;
40635;SDS011;26642;55.766;37.828;2023-03-01T06:34:33;1.58;;;0.60;;
40635;SDS011;26642;55.766;37.828;2023-03-01T06:36:59;1.38;;;0.90;;
40635;SDS011;26642;55.766;37.828;2023-03-01T06:39:27;2.28;;;0.50;;
40635;SDS011;26642;55.766;37.828;2023-03-01T06:41:53;3.83;;;0.82;;
40635;SDS011;26642;55.766;37.828;2023-03-01T06:44:19;1.40;;;0.60;;
40635;SDS011;26642;55.766;37.828;2023-03-01T06:46:45;1.15;;;0.63;;
40635;SDS011;26642;55.766;37.828;2023-03-01T06:49:10;2.15;;;0.73;;
40635;SDS011;26642;55.766;37.828;2023-03-01T06:51:37;2.05;;;0.50;;
40635;SDS011;26642;55.766;37.828;2023-03-01T06:54:06;1.83;;;0.70;;
40635;SDS011;26642;55.766;37.828;2023-03-01T06:56:32;3.20;;;0.75;;
40635;SDS011;26642;55.766;37.828;2023-03-01T06:58:58;1.42;;;0.75;;
40635;SDS011;26642;55.766;37.828;2023-03-01T07:01:24;1.30;;;0.80;;
40635;SDS011;26642;55.766;37.828;2023-03-01T07:03:50;3.95;;;1.00;;
40635;SDS011;26642;55.766;37.828;2023-03-01T07:06:17;2.08;;;1.27;;
40635;SDS011;26642;55.766;37.828;2023-03-01T07:08:42;3.95;;;1.17;;
40635;SDS011;26642;55.766;37.828;2023-03-01T07:11:08;1.65;;;0.90;;
40635;SDS011;26642;55.766;37.828;2023-03-01T07:13:34;2.65;;;0.90;;
40635;SDS011;26642;55.766;37.828;2023-03-01T07:16:00;2.13;;;1.05;;
40635;SDS011;26642;55.766;37.828;2023-03-01T07:18:26;2.85;;;0.90;;
40635;SDS011;26642;55.766;37.828;2023-03-01T07:20:52;2.10;;;0.82;;
40635;SDS011;26642;55.766;37.828;2023-03-01T07:23:18;1.98;;;1.15;;
40635;SDS011;26642;55.766;37.828;2023-03-01T07:25:44;1.90;;;0.90;;
40635;SDS011;26642;55.766;37.828;2023-03-01T07:28:20;2.40;;;0.85;;
40635;SDS011;26642;55.766;37.828;2023-03-01T07:30:47;1.90;;;0.73;;
40635;SDS011;26642;55.766;37.828;2023-03-01T07:33:13;1.95;;;0.70;;
40635;SDS011;26642;55.766;37.828;2023-03-01T07:35:39;1.42;;;0.60;;
40635;SDS011;26642;55.766;37.828;2023-03-01T07:38:05;2.25;;;0.90;;
40635;SDS011;26642;55.766;37.828;2023-03-01T07:40:31;4.10;;;0.70;;
40635;SDS011;26642;55.766;37.828;2023-03-01T07:42:57;3.17;;;0.90;;
40635;SDS011;26642;55.766;37.828;2023-03-01T07:45:27;1.52;;;0.88;;
40635;SDS011;26642;55.766;37.828;2023-03-01T07:47:54;1.30;;;0.73;;
40635;SDS011;26642;55.766;37.828;2023-03-01T07:50:21;1.42;;;0.60;;
40635;SDS011;26642;55.766;37.828;2023-03-01T07:52:48;1.98;;;0.80;;
40635;SDS011;26642;55.766;37.828;2023-03-01T07:55:14;1.85;;;1.00;;
40635;SDS011;26642;55.766;37.828;2023-03-01T07:57:41;1.42;;;0.70;;
40635;SDS011;26642;55.766;37.828;2023-03-01T08:00:09;2.63;;;0.88;;
40635;SDS011;26642;55.766;37.828;2023-03-01T08:02:39;1.88;;;0.73;;
40635;SDS011;26642;55.766;37.828;2023-03-01T08:05:07;0.52;;;0.50;;
40635;SDS011;26642;55.766;37.828;2023-03-01T08:07:35;2.22;;;0.80;;
40635;SDS011;26642;55.766;37.828;2023-03-01T08:10:01;1.33;;;0.80;;
40635;SDS011;26642;55.766;37.828;2023-03-01T08:12:27;2.50;;;0.70;;
40635;SDS011;26642;55.766;37.828;2023-03-01T08:14:53;1.80;;;0.70;;
40635;SDS011;26642;55.766;37.828;2023-03-01T08:17:19;2.65;;;0.82;;
40635;SDS011;26642;55.766;37.828;2023-03-01T08:19:45;0.73;;;0.47;;
40635;SDS011;26642;55.766;37.828;2023-03-01T08:22:11;1.05;;;0.80;;
40635;SDS011;26642;55.766;37.828;2023-03-01T08:24:37;0.93;;;0.57;;
40635;SDS011;26642;55.766;37.828;2023-03-01T08:27:03;3.00;;;0.80;;
40635;SDS011;26642;55.766;37.828;2023-03-01T08:29:33;2.28;;;0.98;;
40635;SDS011;26642;55.766;37.828;2023-03-01T08:31:59;1.73;;;0.93;;
40635;SDS011;26642;55.766;37.828;2023-03-01T08:34:25;1.48;;;0.77;;
40635;SDS011;26642;55.766;37.828;2023-03-01T08:36:51;1.30;;;0.73;;
40635;SDS011;26642;55.766;37.828;2023-03-01T08:39:18;1.08;;;0.80;;
40635;SDS011;26642;55.766;37.828;2023-03-01T08:41:46;1.73;;;0.50;;
40635;SDS011;26642;55.766;37.828;2023-03-01T08:44:13;1.67;;;0.63;;
40635;SDS011;26642;55.766;37.828;2023-03-01T08:46:42;1.17;;;0.70;;
40635;SDS011;26642;55.766;37.828;2023-03-01T08:49:13;1.23;;;0.70;;
40635;SDS011;26642;55.766;37.828;2023-03-01T08:51:40;2.65;;;0.80;;
40635;SDS011;26642;55.766;37.828;2023-03-01T08:54:09;1.27;;;0.73;;
40635;SDS011;26642;55.766;37.828;2023-03-01T08:56:37;1.85;;;0.85;;
40635;SDS011;26642;55.766;37.828;2023-03-01T08:59:03;4.10;;;1.00;;
40635;SDS011;26642;55.766;37.828;2023-03-01T09:01:29;2.67;;;0.90;;
40635;SDS011;26642;55.766;37.828;2023-03-01T09:03:55;2.58;;;0.90;;
40635;SDS011;26642;55.766;37.828;2023-03-01T09:06:22;4.20;;;1.75;;
40635;SDS011;26642;55.766;37.828;2023-03-01T09:08:48;2.28;;;1.17;;
40635;SDS011;26642;55.766;37.828;2023-03-01T09:11:16;2.72;;;1.13;;
40635;SDS011;26642;55.766;37.828;2023-03-01T09:13:44;2.47;;;1.20;;
40635;SDS011;26642;55.766;37.828;2023-03-01T09:16:12;2.17;;;1.30;;
40635;SDS011;26642;55.766;37.828;2023-03-01T09:18:40;2.95;;;1.10;;
40635;SDS011;26642;55.766;37.828;2023-03-01T09:21:07;2.85;;;1.10;;
40635;SDS011;26642;55.766;37.828;2023-03-01T09:23:35;2.78;;;1.08;;
40635;SDS011;26642;55.766;37.828;2023-03-01T09:26:14;3.60;;;1.38;;
40635;SDS011;26642;55.766;37.828;2023-03-01T09:28:42;3.28;;;1.00;;
40635;SDS011;26642;55.766;37.828;2023-03-01T09:31:09;3.88;;;1.38;;
40635;SDS011;26642;55.766;37.828;2023-03-01T09:33:38;3.22;;;1.52;;
40635;SDS011;26642;55.766;37.828;2023-03-01T09:36:05;2.08;;;1.00;;
40635;SDS011;26642;55.766;37.828;2023-03-01T09:38:33;3.75;;;0.88;;
40635;SDS011;26642;55.766;37.828;2023-03-01T09:41:00;3.38;;;1.50;;
40635;SDS011;26642;55.766;37.828;2023-03-01T09:43:29;2.85;;;1.90;;
40635;SDS011;26642;55.766;37.828;2023-03-01T09:46:19;4.38;;;2.10;;
40635;SDS011;26642;55.766;37.828;2023-03-01T09:48:57;2.20;;;1.30;;
40635;SDS011;26642;55.766;37.828;2023-03-01T09:51:32;3.05;;;1.42;;
40635;SDS011;26642;55.766;37.828;2023-03-01T09:54:03;3.70;;;1.30;;
40635;SDS011;26642;55.766;37.828;2023-03-01T10:09:56;2.22;;;0.93;;
40635;SDS011;26642;55.766;37.828;2023-03-01T10:12:25;2.03;;;1.10;;
40635;SDS011;26642;55.766;37.828;2023-03-01T10:15:15;2.25;;;1.00;;
40635;SDS011;26642;55.766;37.828;2023-03-01T10:17:47;2.85;;;1.08;;
40635;SDS011;26642;55.766;37.828;2023-03-01T10:20:15;2.50;;;1.08;;
40635;SDS011;26642;55.766;37.828;2023-03-01T10:22:47;1.90;;;1.00;;
40635;SDS011;26642;55.766;37.828;2023-03-01T10:25:20;2.33;;;1.08;;
40635;SDS011;26642;55.766;37.828;2023-03-01T10:28:24;2.53;;;0.82;;
40635;SDS011;26642;55.766;37.828;2023-03-01T10:30:56;1.13;;;1.00;;
40635;SDS011;26642;55.766;37.828;2023-03-01T10:33:25;1.98;;;0.93;;
40635;SDS011;26642;55.766;37.828;2023-03-01T10:35:54;2.10;;;0.95;;
40635;SDS011;26642;55.766;37.828;2023-03-01T10:38:20;3.05;;;1.20;;
40635;SDS011;26642;55.766;37.828;2023-03-01T10:43:20;1.85;;;1.10;;
40635;SDS011;26642;55.766;37.828;2023-03-01T10:45:47;1.50;;;1.08;;
40635;SDS011;26642;55.766;37.828;2023-03-01T10:51:06;2.85;;;1.17;;
40635;SDS011;26642;55.766;37.828;2023-03-01T10:53:42;1.83;;;0.93;;
40635;SDS011;26642;55.766;37.828;2023-03-01T10:56:13;1.25;;;0.90;;
40635;SDS011;26642;55.766;37.828;2023-03-01T10:58:41;3.33;;;1.02;;
40635;SDS011;26642;55.766;37.828;2023-03-01T11:01:30;1.10;;;0.70;;
40635;SDS011;26642;55.766;37.828;2023-03-01T11:04:08;2.47;;;0.90;;
40635;SDS011;26642;55.766;37.828;2023-03-01T11:06:38;1.30;;;0.90;;
40635;SDS011;26642;55.766;37.828;2023-03-01T11:09:18;2.55;;;0.80;;
40635;SDS011;26642;55.766;37.828;2023-03-01T11:11:56;1.35;;;0.73;;
40635;SDS011;26642;55.766;37.828;2023-03-01T11:14:25;0.85;;;0.70;;
40635;SDS011;26642;55.766;37.828;2023-03-01T11:17:06;3.60;;;0.85;;
40635;SDS011;26642;55.766;37.828;2023-03-01T11:19:37;3.20;;;0.77;;
40635;SDS011;26642;55.766;37.828;2023-03-01T11:22:05;1.75;;;0.82;;
40635;SDS011;26642;55.766;37.828;2023-03-01T11:24:47;1.95;;;0.93;;
40635;SDS011;26642;55.766;37.828;2023-03-01T11:27:24;1.52;;;0.77;;
40635;SDS011;26642;55.766;37.828;2023-03-01T11:32:35;1.70;;;0.80;;
40635;SDS011;26642;55.766;37.828;2023-03-01T11:35:21;1.63;;;0.90;;
40635;SDS011;26642;55.766;37.828;2023-03-01T11:40:26;1.67;;;0.80;;
40635;SDS011;26642;55.766;37.828;2023-03-01T11:43:20;1.83;;;0.73;;
40635;SDS011;26642;55.766;37.828;2023-03-01T11:52:06;1.17;;;0.65;;
40635;SDS011;26642;55.766;37.828;2023-03-01T12:00:16;1.05;;;0.70;;
40635;SDS011;26642;55.766;37.828;2023-03-01T12:50:24;1.80;;;0.65;;
40635;SDS011;26642;55.766;37.828;2023-03-01T12:52:58;1.33;;;0.63;;
40635;SDS011;26642;55.766;37.828;2023-03-01T12:55:26;2.00;;;0.63;;
40635;SDS011;26642;55.766;37.828;2023-03-01T13:00:33;0.93;;;0.50;;
40635;SDS011;26642;55.766;37.828;2023-03-01T13:03:04;1.20;;;0.50;;
40635;SDS011;26642;55.766;37.828;2023-03-01T13:05:41;1.52;;;0.60;;
40635;SDS011;26642;55.766;37.828;2023-03-01T13:11:19;0.70;;;0.60;;
40635;SDS011;26642;55.766;37.828;2023-03-01T13:13:47;0.68;;;0.52;;
40635;SDS011;26642;55.766;37.828;2023-03-01T13:21:46;2.25;;;0.50;;
40635;SDS011;26642;55.766;37.828;2023-03-01T13:29:46;1.13;;;0.50;;
40635;SDS011;26642;55.766;37.828;2023-03-01T13:32:23;1.42;;;0.40;;
40635;SDS011;26642;55.766;37.828;2023-03-01T13:35:03;0.65;;;0.40;;
40635;SDS011;26642;55.766;37.828;2023-03-01T13:37:42;1.17;;;0.88;;
40635;SDS011;26642;55.766;37.828;2023-03-01T13:42:45;0.90;;;0.70;;
40635;SDS011;26642;55.766;37.828;2023-03-01T13:45:16;1.23;;;0.47;;
40635;SDS011;26642;55.766;37.828;2023-03-01T13:48:08;2.17;;;0.40;;
40635;SDS011;26642;55.766;37.828;2023-03-01T13:50:38;3.33;;;0.60;;
40635;SDS011;26642;55.766;37.828;2023-03-01T13:53:17;4.47;;;0.50;;
40635;SDS011;26642;55.766;37.828;2023-03-01T13:55:56;1.33;;;0.47;;
40635;SDS011;26642;55.766;37.828;2023-03-01T13:58:32;2.25;;;0.50;;
40635;SDS011;26642;55.766;37.828;2023-03-01T14:01:18;1.45;;;0.40;;
40635;SDS011;26642;55.766;37.828;2023-03-01T14:03:46;2.97;;;0.70;;
40635;SDS011;26642;55.766;37.828;2023-03-01T14:06:13;0.93;;;0.60;;
40635;SDS011;26642;55.766;37.828;2023-03-01T14:08:43;1.35;;;0.80;;
40635;SDS011;26642;55.766;37.828;2023-03-01T14:11:20;1.33;;;0.57;;
40635;SDS011;26642;55.766;37.828;2023-03-01T14:19:25;2.88;;;0.63;;
40635;SDS011;26642;55.766;37.828;2023-03-01T14:24:51;1.52;;;0.60;;
40635;SDS011;26642;55.766;37.828;2023-03-01T14:27:20;1.02;;;0.40;;
40635;SDS011;26642;55.766;37.828;2023-03-01T14:29:59;1.67;;;0.75;;
40635;SDS011;26642;55.766;37.828;2023-03-01T14:34:53;1.17;;;0.50;;
40635;SDS011;26642;55.766;37.828;2023-03-01T14:37:30;0.95;;;0.40;;
40635;SDS011;26642;55.766;37.828;2023-03-01T14:39:58;1.52;;;0.50;;
40635;SDS011;26642;55.766;37.828;2023-03-01T14:42:27;1.90;;;0.60;;
40635;SDS011;26642;55.766;37.828;2023-03-01T14:44:56;1.67;;;0.50;;
40635;SDS011;26642;55.766;37.828;2023-03-01T14:47:33;0.80;;;0.40;;
40635;SDS011;26642;55.766;37.828;2023-03-01T14:50:07;1.23;;;0.73;;
40635;SDS011;26642;55.766;37.828;2023-03-01T14:52:55;1.55;;;0.52;;
40635;SDS011;26642;55.766;37.828;2023-03-01T14:55:34;1.80;;;0.60;;
40635;SDS011;26642;55.766;37.828;2023-03-01T14:58:04;1.55;;;0.40;;
40635;SDS011;26642;55.766;37.828;2023-03-01T15:00:34;0.73;;;0.40;;
40635;SDS011;26642;55.766;37.828;2023-03-01T15:05:52;1.40;;;0.65;;
40635;SDS011;26642;55.766;37.828;2023-03-01T15:08:21;1.35;;;0.52;;
40635;SDS011;26642;55.766;37.828;2023-03-01T15:11:00;1.55;;;0.45;;
40635;SDS011;26642;55.766;37.828;2023-03-01T15:13:29;2.70;;;0.73;;
40635;SDS011;26642;55.766;37.828;2023-03-01T15:16:13;1.88;;;0.95;;
40635;SDS011;26642;55.766;37.828;2023-03-01T15:19:03;2.28;;;0.65;;
40635;SDS011;26642;55.766;37.828;2023-03-01T15:21:32;1.55;;;0.80;;
40635;SDS011;26642;55.766;37.828;2023-03-01T15:26:43;2.03;;;0.60;;
40635;SDS011;26642;55.766;37.828;2023-03-01T15:29:23;2.58;;;1.08;;
40635;SDS011;26642;55.766;37.828;2023-03-01T15:32:05;3.60;;;0.70;;
40635;SDS011;26642;55.766;37.828;2023-03-01T15:34:52;3.00;;;0.70;;
40635;SDS011;26642;55.766;37.828;2023-03-01T15:40:22;2.90;;;1.02;;
40635;SDS011;26642;55.766;37.828;2023-03-01T15:43:03;1.45;;;0.65;;
40635;SDS011;26642;55.766;37.828;2023-03-01T15:45:34;4.18;;;0.90;;
40635;SDS011;26642;55.766;37.828;2023-03-01T15:48:03;1.65;;;0.60;;
40635;SDS011;26642;55.766;37.828;2023-03-01T15:50:31;2.28;;;0.65;;
40635;SDS011;26642;55.766;37.828;2023-03-01T15:53:00;1.20;;;0.70;;
40635;SDS011;26642;55.766;37.828;2023-03-01T15:55:36;2.42;;;0.90;;
40635;SDS011;26642;55.766;37.828;2023-03-01T15:58:03;2.72;;;0.73;;
40635;SDS011;26642;55.766;37.828;2023-03-01T16:00:38;1.58;;;0.93;;
40635;SDS011;26642;55.766;37.828;2023-03-01T16:03:04;4.07;;;0.60;;
40635;SDS011;26642;55.766;37.828;2023-03-01T16:05:33;2.55;;;0.60;;
40635;SDS011;26642;55.766;37.828;2023-03-01T16:08:01;1.95;;;0.55;;
40635;SDS011;26642;55.766;37.828;2023-03-01T16:10:28;3.85;;;0.98;;
40635;SDS011;26642;55.766;37.828;2023-03-01T16:12:54;4.28;;;0.95;;
40635;SDS011;26642;55.766;37.828;2023-03-01T16:15:23;2.17;;;0.73;;
40635;SDS011;26642;55.766;37.828;2023-03-01T16:17:51;1.55;;;0.73;;
40635;SDS011;26642;55.766;37.828;2023-03-01T16:20:21;2.20;;;0.77;;
40635;SDS011;26642;55.766;37.828;2023-03-01T16:22:48;3.10;;;0.90;;
40635;SDS011;26642;55.766;37.828;2023-03-01T16:25:14;2.00;;;0.80;;
40635;SDS011;26642;55.766;37.828;2023-03-01T16:27:47;1.38;;;0.80;;
40635;SDS011;26642;55.766;37.828;2023-03-01T16:30:15;1.13;;;0.80;;
40635;SDS011;26642;55.766;37.828;2023-03-01T16:32:43;2.20;;;0.85;;
40635;SDS011;26642;55.766;37.828;2023-03-01T16:35:11;1.73;;;0.95;;
40635;SDS011;26642;55.766;37.828;2023-03-01T16:37:39;2.85;;;0.90;;
40635;SDS011;26642;55.766;37.828;2023-03-01T16:40:06;1.98;;;1.00;;
40635;SDS011;26642;55.766;37.828;2023-03-01T16:42:41;2.90;;;0.85;;
40635;SDS011;26642;55.766;37.828;2023-03-01T16:45:07;4.10;;;1.13;;
40635;SDS011;26642;55.766;37.828;2023-03-01T16:47:34;2.60;;;1.30;;
40635;SDS011;26642;55.766;37.828;2023-03-01T16:50:00;2.45;;;1.00;;
40635;SDS011;26642;55.766;37.828;2023-03-01T16:52:26;3.28;;;1.30;;
40635;SDS011;26642;55.766;37.828;2023-03-01T16:54:52;3.47;;;0.90;;
40635;SDS011;26642;55.766;37.828;2023-03-01T16:57:18;3.42;;;1.45;;
40635;SDS011;26642;55.766;37.828;2023-03-01T16:59:44;2.30;;;1.17;;
40635;SDS011;26642;55.766;37.828;2023-03-01T17:02:11;3.05;;;1.60;;
40635;SDS011;26642;55.766;37.828;2023-03-01T17:04:38;2.05;;;1.60;;
40635;SDS011;26642;55.766;37.828;2023-03-01T17:07:05;3.55;;;1.23;;